Time;durP1;ratioP1;P1;durP2;ratioP2;P2;SDS_P1;SDS_P2;PMS_P1;PMS_P2;Temp;Humidity;BMP_temperature;BMP_pressure;BME280_temperature;BME280_humidity;BME280_pressure;Samples;Min_cycle;Max_cycle;Signal;HPM_P1;HPM_P2
2024/02/13 00:00:35;;;;;;;5.90;3.53;;;;;;;6.27;80.85;96939.53;6082382;29;20232;-92
2024/02/13 00:03:38;;;;;;;3.40;3.10;;;;;;;7.26;81.28;97095.63;6118629;29;20205;-94
2024/02/13 00:06:41;;;;;;;5.30;4.20;;;;;;;7.36;81.49;97126.81;6094595;29;20196;-92
2024/02/13 00:09:43;;;;;;;6.83;3.57;;;;;;;5.63;82.33;96876.00;6093501;29;20810;-92
2024/02/13 00:12:45;;;;;;;4.43;3.43;;;;;;;6.67;81.56;97026.91;6076989;29;20351;-91
2024/02/13 00:15:48;;;;;;;4.27;3.30;;;;;;;6.11;81.83;96975.44;6077273;29;20210;-92
2024/02/13 00:18:50;;;;;;;5.57;3.87;;;;;;;7.06;81.90;97103.97;6086686;29;20213;-93
2024/02/13 00:22:20;;;;;;;4.50;3.63;;;;;;;7.44;82.34;97156.41;6113825;29;20214;-92
2024/02/13 00:25:38;;;;;;;3.83;3.27;;;;;;;6.87;81.24;97060.94;6120603;29;20242;-91
2024/02/13 00:28:41;;;;;;;4.90;3.40;;;;;;;5.78;82.01;96914.38;6082493;29;20286;-95
2024/02/13 00:31:43;;;;;;;6.50;3.30;;;;;;;5.71;82.55;96911.81;6092686;29;20737;-93
2024/02/13 00:34:45;;;;;;;4.40;3.33;;;;;;;6.56;82.71;97030.38;6108216;29;20211;-92
2024/02/13 00:37:48;;;;;;;5.43;3.27;;;;;;;7.22;82.76;97150.91;6102642;29;20217;-92
2024/02/13 00:40:50;;;;;;;3.90;3.50;;;;;;;5.84;82.67;96945.97;6086764;29;20203;-92
2024/02/13 00:43:52;;;;;;;4.43;3.40;;;;;;;5.92;82.98;96932.44;6088661;29;20684;-91
2024/02/13 00:46:56;;;;;;;4.20;3.33;;;;;;;7.00;83.37;97133.22;6073820;29;20215;-94
2024/02/13 00:50:01;;;;;;;5.00;3.27;;;;;;;6.39;81.91;97005.66;6092244;29;20252;-92
2024/02/13 00:53:05;;;;;;;4.33;3.27;;;;;;;6.10;82.00;96973.00;6098712;29;20673;-92
2024/02/13 00:56:07;;;;;;;4.03;3.30;;;;;;;7.55;81.62;97201.69;6085803;29;20206;-92
2024/02/13 00:59:10;;;;;;;5.97;3.77;;;;;;;5.38;82.95;96910.53;6088441;29;20274;-93
2024/02/13 01:02:17;;;;;;;3.70;3.27;;;;;;;7.02;81.90;97128.50;6096839;29;20710;-92
2024/02/13 01:05:19;;;;;;;5.03;3.47;;;;;;;6.62;81.49;97108.84;6075737;29;20215;-93
2024/02/13 01:08:24;;;;;;;4.47;3.07;;;;;;;6.20;83.24;97058.66;6082179;29;20694;-92
2024/02/13 01:11:27;;;;;;;5.37;3.40;;;;;;;5.49;83.00;96961.78;6122954;29;20206;-91
2024/02/13 01:14:31;;;;;;;4.30;3.40;;;;;;;5.42;83.15;96948.69;6095089;29;20332;-92
2024/02/13 01:17:33;;;;;;;5.63;3.60;;;;;;;6.17;82.83;97042.47;6114985;29;20206;-93
2024/02/13 01:20:36;;;;;;;5.40;3.43;;;;;;;5.55;83.58;97002.34;6095777;29;20210;-92
2024/02/13 01:23:38;;;;;;;4.73;3.40;;;;;;;6.81;83.88;97202.19;6103222;29;20223;-92
2024/02/13 01:26:42;;;;;;;4.40;3.27;;;;;;;6.54;85.16;97171.88;6108217;29;20215;-91
2024/02/13 01:29:44;;;;;;;4.10;3.60;;;;;;;5.50;83.64;97013.56;6107002;29;20218;-92
2024/02/13 01:32:48;;;;;;;4.57;3.50;;;;;;;5.82;84.88;97100.53;6102107;29;20259;-92
2024/02/13 01:35:53;;;;;;;7.17;3.70;;;;;;;5.35;84.67;97021.91;6113217;29;20198;-90
2024/02/13 01:38:59;;;;;;;3.87;3.47;;;;;;;6.49;84.50;97174.41;6106963;29;20695;-93
2024/02/13 01:42:02;;;;;;;5.47;3.57;;;;;;;5.56;85.61;97072.63;6096212;29;20688;-92
2024/02/13 01:45:09;;;;;;;3.47;3.13;;;;;;;5.05;87.59;97050.13;6110632;29;20228;-93
2024/02/13 01:48:14;;;;;;;3.73;3.43;;;;;;;4.33;87.53;96961.03;6086129;29;20199;-93
2024/02/13 01:51:17;;;;;;;4.63;3.27;;;;;;;4.91;88.76;97074.03;6105762;29;20233;-92
2024/02/13 01:54:19;;;;;;;5.60;3.17;;;;;;;4.90;89.71;97098.81;6090277;29;20285;-92
2024/02/13 01:57:23;;;;;;;3.80;3.20;;;;;;;3.81;91.52;96952.66;6098584;29;20208;-92
2024/02/13 02:00:27;;;;;;;4.33;3.27;;;;;;;4.66;92.56;97102.34;6098228;29;20251;-92
2024/02/13 02:03:35;;;;;;;4.77;3.30;;;;;;;4.69;94.16;97133.56;6079389;29;20223;-90
2024/02/13 02:06:37;;;;;;;5.47;3.80;;;;;;;5.18;91.84;97132.63;6095997;29;20669;-92
2024/02/13 02:09:44;;;;;;;4.83;3.70;;;;;;;5.31;92.46;97184.47;6101276;29;20209;-91
2024/02/13 02:12:49;;;;;;;6.03;3.80;;;;;;;5.75;93.40;97255.72;6118412;29;20213;-93
2024/02/13 02:15:52;;;;;;;4.40;3.80;;;;;;;4.98;90.05;97068.72;6088108;29;20293;-93
2024/02/13 02:18:55;;;;;;;7.70;4.57;;;;;;;4.87;90.11;97070.22;6093971;29;20207;-91
2024/02/13 02:21:58;;;;;;;6.17;3.80;;;;;;;5.63;88.16;97123.56;6110911;29;20349;-93
2024/02/13 02:25:00;;;;;;;7.43;4.00;;;;;;;5.78;89.47;97223.59;6100312;29;20213;-92
2024/02/13 02:28:18;;;;;;;5.23;4.30;;;;;;;4.28;90.48;96987.25;6100580;29;20210;-91
2024/02/13 02:31:21;;;;;;;6.17;4.13;;;;;;;4.82;89.62;97038.41;6099854;29;20216;-92
2024/02/13 02:34:23;;;;;;;5.93;4.13;;;;;;;6.27;89.23;97272.81;6100251;29;20199;-94
2024/02/13 02:37:26;;;;;;;4.63;3.37;;;;;;;4.53;90.07;97083.97;6099620;29;20210;-93
2024/02/13 02:40:28;;;;;;;5.53;3.40;;;;;;;5.82;91.60;97285.56;6108773;29;20529;-93
2024/02/13 02:43:30;;;;;;;4.40;4.00;;;;;;;5.66;91.57;97265.78;6085883;29;20224;-92
2024/02/13 02:46:32;;;;;;;7.00;5.00;;;;;;;5.17;89.40;97103.78;6093870;29;20194;-94
2024/02/13 02:49:34;;;;;;;5.80;4.50;;;;;;;5.78;90.50;97250.81;6080978;29;20562;-93
2024/02/13 02:52:37;;;;;;;5.10;3.47;;;;;;;5.76;90.64;97249.41;6084114;29;20237;-94
2024/02/13 02:55:40;;;;;;;5.40;3.23;;;;;;;4.84;92.31;97130.56;6101561;29;20210;-92
2024/02/13 02:58:43;;;;;;;4.77;3.50;;;;;;;5.01;94.31;97207.34;6093055;29;20586;-93
2024/02/13 03:01:46;;;;;;;5.63;3.60;;;;;;;4.40;94.31;97113.94;6084335;29;20247;-92
2024/02/13 03:04:49;;;;;;;4.57;3.83;;;;;;;5.91;91.80;97321.22;6096746;29;20599;-91
2024/02/13 03:07:51;;;;;;;4.60;3.73;;;;;;;5.30;92.57;97198.72;6090566;29;20214;-92
2024/02/13 03:10:53;;;;;;;5.37;4.40;;;;;;;4.92;94.06;97165.38;6104256;29;20210;-93
2024/02/13 03:13:55;;;;;;;4.47;3.90;;;;;;;3.94;93.17;97001.81;6086549;29;20584;-91
2024/02/13 03:16:57;;;;;;;5.00;3.80;;;;;;;5.53;93.25;97292.38;6097514;29;20206;-92
2024/02/13 03:20:00;;;;;;;5.37;3.17;;;;;;;5.35;94.59;97275.47;6076816;29;20230;-92
2024/02/13 03:23:03;;;;;;;6.30;4.67;;;;;;;5.63;95.17;97325.19;6111548;29;20681;-92
2024/02/13 03:26:05;;;;;;;4.43;3.37;;;;;;;4.25;95.64;97124.81;6101551;29;20211;-92
2024/02/13 03:29:07;;;;;;;5.43;4.27;;;;;;;4.69;93.90;97138.84;6092480;29;20743;-92
2024/02/13 03:32:10;;;;;;;5.03;4.33;;;;;;;5.04;92.32;97183.16;6107174;29;20301;-91
2024/02/13 03:35:13;;;;;;;4.10;3.40;;;;;;;6.14;94.09;97373.47;6089462;29;20203;-93
2024/02/13 03:38:15;;;;;;;5.20;4.57;;;;;;;5.06;94.00;97195.09;6083941;29;20210;-92
2024/02/13 03:41:17;;;;;;;4.87;4.10;;;;;;;6.05;93.18;97324.56;6094395;29;20201;-93
2024/02/13 03:44:19;;;;;;;6.57;3.77;;;;;;;5.90;94.01;97338.91;6079887;29;20247;-92
2024/02/13 03:47:22;;;;;;;4.70;4.03;;;;;;;4.20;95.24;97102.75;6098999;29;20238;-93
2024/02/13 03:50:26;;;;;;;4.90;3.43;;;;;;;5.47;96.54;97301.97;6110958;29;20225;-93
2024/02/13 03:53:29;;;;;;;6.03;4.27;;;;;;;5.33;96.74;97308.41;6090916;29;20206;-92
2024/02/13 03:56:31;;;;;;;6.43;4.23;;;;;;;4.56;97.68;97168.78;6091236;29;20230;-92
2024/02/13 03:59:33;;;;;;;7.63;3.90;;;;;;;6.04;95.95;97395.13;6106639;29;20211;-92
2024/02/13 04:02:36;;;;;;;4.30;3.90;;;;;;;5.11;97.17;97258.63;6098183;29;20302;-93
2024/02/13 04:05:39;;;;;;;6.40;3.90;;;;;;;4.75;98.32;97217.13;6103559;29;20588;-91
2024/02/13 04:08:45;;;;;;;3.60;3.30;;;;;;;5.51;98.88;97340.13;6085060;29;20209;-92
2024/02/13 04:11:49;;;;;;;5.73;3.97;;;;;;;4.95;99.32;97282.13;6085334;29;20207;-92
2024/02/13 04:14:52;;;;;;;5.57;4.17;;;;;;;5.66;100.00;97353.00;6104889;29;20219;-94
2024/02/13 04:17:57;;;;;;;6.10;5.33;;;;;;;4.76;96.95;97228.47;6096720;29;20596;-92
2024/02/13 04:21:00;;;;;;;6.30;5.20;;;;;;;5.50;97.82;97324.50;6095748;29;20205;-92
2024/02/13 04:24:04;;;;;;;6.47;5.67;;;;;;;4.98;96.66;97258.75;6083580;29;20230;-92
2024/02/13 04:27:06;;;;;;;5.73;4.43;;;;;;;5.20;98.91;97271.56;6104914;29;20635;-92
2024/02/13 04:30:12;;;;;;;6.03;5.43;;;;;;;5.58;97.44;97337.44;6085336;29;20222;-92
2024/02/13 04:33:15;;;;;;;5.57;4.93;;;;;;;5.58;96.05;97318.94;6114920;29;20407;-92
2024/02/13 04:36:17;;;;;;;6.20;4.83;;;;;;;5.75;98.28;97370.19;6108449;29;20198;-94
2024/02/13 04:39:20;;;;;;;5.90;5.27;;;;;;;6.17;99.75;97425.94;6117156;29;20209;-93
2024/02/13 04:42:35;;;;;;;5.63;5.03;;;;;;;5.57;99.00;97351.69;6091941;29;20665;-93
2024/02/13 04:45:38;;;;;;;5.67;4.90;;;;;;;5.52;100.00;97341.75;6090060;29;20269;-93
2024/02/13 04:48:40;;;;;;;5.77;4.57;;;;;;;6.25;100.00;97460.00;6087630;29;20199;-93
2024/02/13 04:51:43;;;;;;;7.03;5.43;;;;;;;5.99;100.00;97450.50;6090486;29;20226;-92
2024/02/13 04:54:45;;;;;;;5.53;5.03;;;;;;;4.94;100.00;97269.97;6081742;29;20303;-91
2024/02/13 04:57:47;;;;;;;6.50;5.70;;;;;;;5.21;100.00;97321.50;6082011;29;20210;-93
2024/02/13 05:01:01;;;;;;;6.40;5.80;;;;;;;5.99;99.64;97469.03;6085401;29;20238;-92
2024/02/13 05:07:23;;;;;;;5.27;4.67;;;;;;;4.92;100.00;97317.66;6091675;29;20564;-92
2024/02/13 05:10:29;;;;;;;6.03;5.43;;;;;;;4.58;100.00;97253.78;6088083;29;20361;-93
2024/02/13 05:13:36;;;;;;;6.37;5.50;;;;;;;4.85;98.85;97270.22;6078341;29;20376;-93
2024/02/13 05:16:40;;;;;;;6.47;5.80;;;;;;;4.96;96.96;97289.00;6098276;29;20212;-92
2024/02/13 05:19:43;;;;;;;5.80;5.00;;;;;;;6.36;97.71;97490.25;6079057;29;20203;-91
2024/02/13 05:22:45;;;;;;;6.20;5.60;;;;;;;5.66;97.79;97390.81;6087966;29;20235;-93
2024/02/13 05:25:50;;;;;;;7.47;6.67;;;;;;;6.51;97.48;97505.78;6102696;29;20212;-90
2024/02/13 05:28:53;;;;;;;8.40;6.23;;;;;;;4.76;98.53;97247.75;6070817;29;20296;-93
2024/02/13 05:31:56;;;;;;;7.23;5.10;;;;;;;5.10;98.01;97352.06;6069471;29;20211;-91
2024/02/13 05:34:59;;;;;;;6.33;5.70;;;;;;;6.32;99.76;97529.56;6062494;29;20208;-93
2024/02/13 05:38:03;;;;;;;6.17;5.57;;;;;;;4.77;100.00;97320.59;6078891;29;20352;-94
2024/02/13 05:41:06;;;;;;;9.37;5.90;;;;;;;5.30;100.00;97423.22;6096784;29;20277;-94
2024/02/13 05:44:08;;;;;;;5.80;5.13;;;;;;;5.33;99.76;97396.38;6091184;29;20212;-92
2024/02/13 05:47:10;;;;;;;6.17;5.57;;;;;;;5.32;100.00;97422.97;6070603;29;20206;-92
2024/02/13 05:50:16;;;;;;;5.87;5.30;;;;;;;4.33;100.00;97282.72;6066444;29;20215;-92
2024/02/13 05:53:20;;;;;;;6.57;5.30;;;;;;;5.61;100.00;97475.19;6079222;29;20219;-93
2024/02/13 05:56:23;;;;;;;6.13;5.30;;;;;;;4.68;100.00;97385.22;6084024;29;20221;-93
2024/02/13 05:59:29;;;;;;;6.07;5.30;;;;;;;4.90;100.00;97420.00;6092915;29;20340;-94
2024/02/13 06:02:32;;;;;;;6.27;5.40;;;;;;;5.50;100.00;97518.16;6092999;29;20199;-92
2024/02/13 06:05:35;;;;;;;7.10;5.80;;;;;;;4.92;100.00;97396.84;6106217;29;20734;-92
2024/02/13 06:08:37;;;;;;;7.27;5.93;;;;;;;5.01;100.00;97411.41;6113894;29;20196;-91
2024/02/13 06:11:40;;;;;;;6.87;6.17;;;;;;;5.71;100.00;97538.13;6101240;29;20210;-93
2024/02/13 06:14:43;;;;;;;7.00;5.83;;;;;;;5.27;100.00;97478.28;6100887;29;20730;-91
2024/02/13 06:17:45;;;;;;;9.00;5.70;;;;;;;5.66;100.00;97540.63;6083753;29;20743;-92
2024/02/13 06:20:53;;;;;;;6.83;5.03;;;;;;;4.78;100.00;97405.84;6085831;29;20283;-93
2024/02/13 06:23:56;;;;;;;10.17;6.30;;;;;;;4.81;100.00;97431.84;6106224;29;20232;-94
2024/02/13 06:26:58;;;;;;;5.90;5.30;;;;;;;3.95;100.00;97297.75;6086817;29;20589;-93
2024/02/13 06:30:03;;;;;;;5.73;4.73;;;;;;;4.03;100.00;97331.75;6098875;29;20210;-95
2024/02/13 06:33:06;;;;;;;6.07;4.20;;;;;;;5.83;100.00;97646.66;6093034;29;20577;-92
2024/02/13 06:36:10;;;;;;;4.37;3.97;;;;;;;5.49;100.00;97598.44;6113751;29;20196;-91
2024/02/13 06:39:12;;;;;;;5.17;4.67;;;;;;;4.63;100.00;97501.13;6112227;29;20625;-93
2024/02/13 06:42:17;;;;;;;4.90;4.10;;;;;;;3.61;100.00;97350.53;6084898;29;20200;-94
2024/02/13 06:45:21;;;;;;;4.47;4.07;;;;;;;3.62;100.00;97325.00;6097073;29;20222;-93
2024/02/13 06:48:27;;;;;;;5.40;3.90;;;;;;;3.60;100.00;97374.44;6125167;29;20298;-92
2024/02/13 06:51:29;;;;;;;5.83;4.23;;;;;;;4.89;100.00;97579.41;6116751;29;20211;-92
2024/02/13 06:54:41;;;;;;;4.73;4.23;;;;;;;4.65;100.00;97542.13;6104873;29;20646;-94
2024/02/13 06:57:43;;;;;;;5.50;4.27;;;;;;;5.34;100.00;97653.38;6118120;29;20231;-93
2024/02/13 07:00:46;;;;;;;6.17;5.40;;;;;;;3.78;100.00;97429.13;6102684;29;20805;-93
2024/02/13 07:04:03;;;;;;;6.10;5.47;;;;;;;3.56;100.00;97376.66;6110152;29;20288;-93
2024/02/13 07:07:25;;;;;;;7.50;5.33;;;;;;;4.10;100.00;97520.50;6115204;29;20221;-90
2024/02/13 07:11:03;;;;;;;5.20;4.40;;;;;;;3.70;100.00;97435.41;6118350;29;20216;-93
2024/02/13 07:14:15;;;;;;;4.67;4.17;;;;;;;3.10;100.00;97372.22;6129522;29;20585;-93
2024/02/13 07:17:23;;;;;;;5.60;4.80;;;;;;;4.21;100.00;97513.00;6106854;29;20222;-92
2024/02/13 07:20:33;;;;;;;5.67;4.10;;;;;;;3.69;100.00;97464.56;6128838;29;20581;-94
2024/02/13 07:23:36;;;;;;;5.40;4.90;;;;;;;3.31;100.00;97444.13;6095860;29;20230;-94
2024/02/13 07:26:44;;;;;;;6.47;5.60;;;;;;;3.25;100.00;97435.22;6096775;29;20228;-92
2024/02/13 07:29:50;;;;;;;8.53;6.33;;;;;;;3.55;100.00;97501.47;6093336;29;20200;-93
2024/02/13 07:33:02;;;;;;;8.97;6.07;;;;;;;3.17;100.00;97398.53;6105014;29;20204;-92
2024/02/13 07:36:05;;;;;;;9.60;5.93;;;;;;;4.96;100.00;97682.31;6088120;29;20204;-92
2024/02/13 07:39:09;;;;;;;7.93;6.23;;;;;;;4.75;100.00;97641.97;6095832;29;20204;-92
2024/02/13 07:42:12;;;;;;;7.40;6.13;;;;;;;4.21;100.00;97548.06;6088704;29;20200;-93
2024/02/13 07:45:15;;;;;;;5.90;5.30;;;;;;;3.45;100.00;97426.47;6086596;29;20219;-94
2024/02/13 07:48:21;;;;;;;8.23;5.93;;;;;;;4.53;100.00;97644.03;6091058;29;20195;-91
2024/02/13 07:51:23;;;;;;;9.10;5.93;;;;;;;4.69;100.00;97618.22;6085484;29;20219;-91
2024/02/13 07:54:28;;;;;;;7.53;5.67;;;;;;;4.74;100.00;97608.69;6093966;29;20215;-92
2024/02/13 07:57:34;;;;;;;6.93;6.07;;;;;;;4.31;100.00;97555.56;6090953;29;20264;-92
2024/02/13 08:00:37;;;;;;;6.90;5.90;;;;;;;4.04;100.00;97494.97;6084271;29;20339;-91
2024/02/13 08:03:39;;;;;;;6.90;6.03;;;;;;;3.83;100.00;97487.28;6092035;29;20211;-92
2024/02/13 08:06:41;;;;;;;7.53;5.80;;;;;;;5.24;100.00;97688.16;6083249;29;20393;-89
2024/02/13 08:09:44;;;;;;;9.30;6.30;;;;;;;5.28;100.00;97681.44;6081487;29;20205;-92
2024/02/13 08:12:49;;;;;;;8.73;6.00;;;;;;;4.84;100.00;97614.34;6089692;29;20218;-94
2024/02/13 08:15:58;;;;;;;9.17;6.60;;;;;;;3.96;100.00;97446.94;6115829;29;20193;-91
2024/02/13 08:19:01;;;;;;;7.97;5.70;;;;;;;5.09;100.00;97648.78;6103108;29;20205;-94
2024/02/13 08:22:03;;;;;;;7.90;6.17;;;;;;;6.01;100.00;97783.47;6100628;29;20671;-94
2024/02/13 08:25:09;;;;;;;6.80;5.70;;;;;;;4.81;100.00;97585.72;6130073;29;20247;-93
2024/02/13 08:28:13;;;;;;;7.77;6.10;;;;;;;4.21;100.00;97503.25;6092193;29;20888;-92
2024/02/13 08:31:19;;;;;;;6.87;6.17;;;;;;;4.23;100.00;97451.13;6101694;29;20189;-93
2024/02/13 08:34:24;;;;;;;7.03;5.87;;;;;;;5.58;100.00;97697.59;6116904;29;20211;-92
2024/02/13 08:37:29;;;;;;;7.00;5.67;;;;;;;5.84;97.59;97738.97;6126821;29;20216;-93
2024/02/13 08:40:52;;;;;;;7.20;5.63;;;;;;;5.47;99.47;97676.28;6120119;29;20233;-91
2024/02/13 08:43:57;;;;;;;7.43;5.43;;;;;;;5.49;96.51;97672.44;6108866;29;20572;-95
2024/02/13 08:47:05;;;;;;;5.60;5.00;;;;;;;4.11;96.01;97511.59;6092671;29;20228;-92
2024/02/13 08:50:08;;;;;;;5.73;4.40;;;;;;;5.43;95.52;97728.75;6110987;29;20202;-93
2024/02/13 08:53:14;;;;;;;10.07;5.53;;;;;;;5.84;95.05;97723.09;6098613;29;20590;-93
2024/02/13 08:56:18;;;;;;;7.10;4.83;;;;;;;4.38;95.56;97517.66;6107601;29;20211;-93
2024/02/13 08:59:35;;;;;;;7.20;5.30;;;;;;;4.97;93.99;97568.59;6105890;29;20231;-94
2024/02/13 09:02:38;;;;;;;5.43;4.40;;;;;;;6.22;93.90;97746.16;6083008;29;20670;-93
2024/02/13 09:05:41;;;;;;;4.80;4.30;;;;;;;6.83;88.38;97787.06;6079015;29;20214;-93
2024/02/13 09:08:46;;;;;;;6.93;4.67;;;;;;;5.84;89.52;97680.00;6078512;29;20723;-92
2024/02/13 09:11:55;;;;;;;6.60;4.23;;;;;;;4.82;92.84;97504.69;6100523;29;20634;-91
2024/02/13 09:15:03;;;;;;;4.60;3.83;;;;;;;5.16;87.65;97536.03;6091847;29;20205;-92
2024/02/13 09:18:13;;;;;;;4.73;4.27;;;;;;;4.57;89.62;97507.22;6078586;29;20529;-93
2024/02/13 09:21:50;;;;;;;5.50;3.80;;;;;;;6.69;88.39;97813.63;6081588;29;20764;-94
2024/02/13 09:24:56;;;;;;;6.17;3.83;;;;;;;5.52;86.38;97648.25;6089249;29;20728;-92
2024/02/13 09:28:00;;;;;;;5.60;3.70;;;;;;;5.91;89.02;97678.13;6088171;29;20306;-94
2024/02/13 09:31:06;;;;;;;4.40;3.17;;;;;;;5.14;84.57;97527.50;6087491;29;20200;-91
2024/02/13 09:34:08;;;;;;;3.80;3.50;;;;;;;5.53;84.40;97626.06;6083822;29;20564;-91
2024/02/13 09:37:15;;;;;;;5.33;3.90;;;;;;;4.89;82.21;97529.25;6099276;29;20194;-90
2024/02/13 09:40:30;;;;;;;5.63;3.33;;;;;;;5.17;82.98;97561.44;6077397;29;20216;-91
2024/02/13 09:43:36;;;;;;;3.47;3.17;;;;;;;5.24;82.22;97521.78;6096035;29;20209;-91
2024/02/13 09:46:47;;;;;;;3.93;3.30;;;;;;;6.22;81.17;97677.38;6091468;29;20220;-93
2024/02/13 09:49:51;;;;;;;5.13;2.93;;;;;;;5.26;76.79;97567.25;6109743;29;20203;-91
2024/02/13 09:52:57;;;;;;;5.33;3.17;;;;;;;7.04;78.19;97839.66;6064654;29;20691;-95
2024/02/13 09:56:00;;;;;;;4.87;3.07;;;;;;;5.75;77.26;97601.97;6066530;29;20279;-93
2024/02/13 09:59:04;;;;;;;4.10;3.00;;;;;;;6.51;79.96;97736.00;6088473;29;20516;-93
2024/02/13 10:02:07;;;;;;;6.57;3.63;;;;;;;6.17;76.47;97701.81;6098662;29;20383;-92
2024/02/13 10:05:10;;;;;;;5.13;3.03;;;;;;;6.54;78.61;97756.72;6102462;29;20569;-91
2024/02/13 10:08:13;;;;;;;4.23;3.57;;;;;;;6.24;83.19;97743.28;6099654;29;20210;-92
2024/02/13 10:11:18;;;;;;;4.17;3.20;;;;;;;5.33;83.19;97623.53;6092858;29;20279;-92
2024/02/13 10:14:21;;;;;;;5.80;3.80;;;;;;;6.56;83.15;97783.81;6091416;29;20214;-92
2024/02/13 10:17:24;;;;;;;4.47;3.57;;;;;;;6.57;84.47;97818.00;6080821;29;20601;-91
2024/02/13 10:20:26;;;;;;;5.73;3.33;;;;;;;7.01;80.15;97847.25;6092136;29;20206;-92
2024/02/13 10:23:33;;;;;;;4.30;3.20;;;;;;;6.54;80.48;97807.00;6087131;29;20584;-92
2024/02/13 10:26:37;;;;;;;5.37;3.77;;;;;;;6.67;78.48;97823.63;6096024;29;20229;-92
2024/02/13 10:29:43;;;;;;;4.50;3.03;;;;;;;6.66;77.76;97808.78;6090258;29;20194;-92
2024/02/13 10:32:46;;;;;;;5.20;3.10;;;;;;;5.97;74.37;97692.38;6099221;29;20207;-94
2024/02/13 10:35:55;;;;;;;4.13;2.50;;;;;;;6.00;69.46;97668.13;6104846;29;20210;-93
2024/02/13 10:39:03;;;;;;;3.50;2.67;;;;;;;5.21;71.48;97535.41;6091256;29;20232;-95
2024/02/13 10:42:10;;;;;;;5.23;2.37;;;;;;;6.69;69.87;97722.81;6102367;29;20209;-92
2024/02/13 10:45:17;;;;;;;3.00;2.10;;;;;;;7.08;65.36;97760.59;6082887;29;20318;-91
2024/02/13 10:48:33;;;;;;;2.83;1.80;;;;;;;7.40;66.52;97817.78;6110514;29;20214;-92
2024/02/13 10:51:37;;;;;;;2.63;1.87;;;;;;;6.14;65.96;97600.91;6096663;29;20213;-92
2024/02/13 10:54:46;;;;;;;3.53;2.37;;;;;;;7.30;68.73;97739.81;6096243;29;20215;-93
2024/02/13 10:57:50;;;;;;;3.00;2.00;;;;;;;7.20;67.30;97705.88;6093319;29;20742;-94
2024/02/13 11:00:59;;;;;;;3.53;1.83;;;;;;;7.32;65.06;97677.59;6116272;29;20246;-93
2024/02/13 11:04:02;;;;;;;3.47;2.17;;;;;;;8.37;66.21;97843.69;6097341;29;20214;-93
2024/02/13 11:07:05;;;;;;;3.47;2.60;;;;;;;8.25;64.35;97857.69;6091188;29;20219;-91
2024/02/13 11:10:09;;;;;;;2.50;2.20;;;;;;;7.27;64.70;97722.50;6080123;29;20236;-93
2024/02/13 11:13:11;;;;;;;4.40;2.50;;;;;;;7.41;64.43;97808.00;6096496;29;20701;-93
2024/02/13 11:16:13;;;;;;;3.63;2.50;;;;;;;7.49;65.28;97781.22;6084567;29;20660;-91
2024/02/13 11:19:19;;;;;;;4.43;2.10;;;;;;;7.17;65.06;97706.31;6091537;29;20209;-90
2024/02/13 11:22:37;;;;;;;4.40;2.40;;;;;;;7.78;66.90;97813.31;6109237;29;20211;-91
2024/02/13 11:25:40;;;;;;;4.07;2.17;;;;;;;7.68;64.29;97769.56;6097915;29;20585;-91
2024/02/13 11:28:46;;;;;;;2.57;2.10;;;;;;;7.63;63.12;97801.22;6084045;29;20691;-91
2024/02/13 11:31:58;;;;;;;3.00;2.07;;;;;;;7.99;65.27;97842.09;6080975;29;20213;-92
2024/02/13 11:35:05;;;;;;;3.13;2.10;;;;;;;7.68;64.02;97797.94;6095577;29;20206;-92
2024/02/13 11:38:18;;;;;;;3.13;1.90;;;;;;;7.84;61.22;97799.22;6088296;29;20232;-92
2024/02/13 11:41:20;;;;;;;3.83;1.93;;;;;;;7.00;59.07;97663.69;6082959;29;20295;-93
2024/02/13 11:44:23;;;;;;;2.77;1.57;;;;;;;8.03;58.66;97837.97;6103462;29;20712;-93
2024/02/13 11:47:25;;;;;;;5.20;1.50;;;;;;;6.74;56.75;97580.03;6073303;29;20572;-94
2024/02/13 11:50:29;;;;;;;1.80;1.50;;;;;;;7.69;55.56;97704.13;6113189;29;20211;-91
2024/02/13 11:53:32;;;;;;;1.90;1.37;;;;;;;8.26;54.60;97769.06;6099215;29;20681;-93
2024/02/13 11:56:35;;;;;;;2.77;1.30;;;;;;;8.87;52.47;97800.97;6087765;29;20198;-92
2024/02/13 11:59:38;;;;;;;2.47;1.00;;;;;;;7.44;52.38;97590.25;6094944;29;20199;-93
2024/02/13 12:02:44;;;;;;;3.03;1.13;;;;;;;7.79;54.21;97656.66;6093153;29;20571;-93
2024/02/13 12:05:48;;;;;;;1.43;0.80;;;;;;;7.48;51.42;97645.19;6091326;29;20285;-94
2024/02/13 12:08:51;;;;;;;1.83;1.20;;;;;;;7.74;52.76;97661.84;6106270;29;20284;-93
2024/02/13 12:11:54;;;;;;;1.70;1.30;;;;;;;7.37;52.57;97630.06;6105183;29;20499;-92
2024/02/13 12:15:04;;;;;;;3.60;1.10;;;;;;;7.71;50.96;97668.38;6100037;29;20203;-91
2024/02/13 12:18:11;;;;;;;1.10;0.80;;;;;;;7.90;50.36;97711.59;6099397;29;20268;-92
2024/02/13 12:21:18;;;;;;;2.03;1.37;;;;;;;7.73;50.22;97655.72;6102552;29;20199;-91
2024/02/13 12:25:07;;;;;;;0.70;0.70;;;;;;;6.80;51.85;97536.81;6099538;29;20228;-91
2024/02/13 12:28:18;;;;;;;3.60;1.10;;;;;;;8.72;50.49;97842.03;6079422;29;20231;-91
2024/02/13 12:31:27;;;;;;;1.57;0.93;;;;;;;7.44;50.79;97644.06;6076270;29;20272;-93
2024/02/13 12:34:32;;;;;;;1.77;1.17;;;;;;;7.56;49.00;97638.81;6087971;29;20257;-92
2024/02/13 12:37:36;;;;;;;2.17;1.10;;;;;;;7.92;50.44;97759.09;6069447;29;20676;-90
2024/02/13 12:40:39;;;;;;;1.50;0.80;;;;;;;7.05;50.18;97677.09;6071709;29;20205;-91
2024/02/13 12:43:47;;;;;;;2.73;1.00;;;;;;;7.48;49.68;97719.41;6070181;29;20891;-91
2024/02/13 12:46:56;;;;;;;3.23;0.80;;;;;;;7.09;51.08;97662.34;6052073;29;20683;-94
2024/02/13 12:50:02;;;;;;;4.20;1.00;;;;;;;6.41;49.78;97565.28;6083690;29;20219;-89
2024/02/13 12:53:10;;;;;;;2.80;0.93;;;;;;;6.54;50.29;97574.13;6079809;29;20196;-92
2024/02/13 12:56:18;;;;;;;2.07;0.90;;;;;;;7.04;47.00;97609.22;6069194;29;20267;-91
2024/02/13 12:59:37;;;;;;;0.57;0.53;;;;;;;6.89;47.36;97587.59;6061317;29;20216;-90
2024/02/13 13:02:41;;;;;;;1.20;0.90;;;;;;;7.21;47.31;97590.91;6074006;29;20201;-92
2024/02/13 13:05:49;;;;;;;1.13;0.70;;;;;;;6.69;46.87;97553.41;6113558;29;20373;-92
2024/02/13 13:08:55;;;;;;;1.23;0.90;;;;;;;6.98;47.65;97624.16;6094604;29;20725;-92
2024/02/13 13:12:21;;;;;;;1.50;0.70;;;;;;;8.16;45.77;97779.41;6112391;29;20200;-93
2024/02/13 13:15:28;;;;;;;0.97;0.70;;;;;;;7.59;45.72;97672.03;6100412;29;20203;-94
2024/02/13 13:18:39;;;;;;;1.50;0.90;;;;;;;8.77;46.30;97828.88;6095212;29;20243;-93
2024/02/13 13:21:42;;;;;;;1.97;0.80;;;;;;;7.25;45.73;97613.28;6107699;29;20207;-91
2024/02/13 13:24:49;;;;;;;0.60;0.60;;;;;;;7.32;46.58;97645.00;6105704;29;20204;-93
2024/02/13 13:27:59;;;;;;;1.37;0.93;;;;;;;6.71;48.08;97549.50;6087105;29;20693;-92
2024/02/13 13:31:04;;;;;;;2.70;0.90;;;;;;;7.63;48.41;97742.91;6095792;29;20203;-92
2024/02/13 13:34:09;;;;;;;1.77;0.90;;;;;;;7.27;46.63;97682.75;6102189;29;20197;-91
2024/02/13 13:37:14;;;;;;;1.93;0.83;;;;;;;7.59;47.79;97736.44;6118431;29;20772;-93
2024/02/13 13:40:18;;;;;;;2.63;1.10;;;;;;;7.27;47.31;97619.16;6086242;29;20215;-92
2024/02/13 13:43:21;;;;;;;1.37;0.83;;;;;;;7.04;47.75;97625.13;6100772;29;20210;-93
2024/02/13 13:46:25;;;;;;;1.67;0.90;;;;;;;8.33;48.21;97827.41;6099946;29;20582;-93
2024/02/13 13:49:31;;;;;;;1.50;1.00;;;;;;;7.91;50.31;97778.72;6093831;29;20525;-91
2024/02/13 13:52:37;;;;;;;3.40;1.10;;;;;;;6.77;48.13;97592.03;6116791;29;20222;-92
2024/02/13 13:55:41;;;;;;;0.93;0.70;;;;;;;8.54;49.83;97865.97;6109118;29;20212;-94
2024/02/13 13:58:46;;;;;;;1.30;0.60;;;;;;;6.86;48.71;97620.66;6087667;29;20686;-92
2024/02/13 14:01:51;;;;;;;2.13;1.00;;;;;;;7.10;48.51;97655.25;6109366;29;20235;-92
2024/02/13 14:04:54;;;;;;;1.73;0.80;;;;;;;7.48;50.00;97731.88;6098003;29;20749;-94
2024/02/13 14:07:56;;;;;;;1.30;0.70;;;;;;;7.08;49.38;97715.56;6103466;29;20516;-94
2024/02/13 14:10:58;;;;;;;1.67;0.80;;;;;;;7.22;52.35;97735.59;6108363;29;20748;-92
2024/02/13 14:14:02;;;;;;;2.27;0.90;;;;;;;7.13;53.02;97718.38;6102204;29;20204;-92
2024/02/13 14:17:06;;;;;;;1.30;0.80;;;;;;;7.53;48.75;97774.44;6097882;29;20569;-92
2024/02/13 14:20:14;;;;;;;1.00;0.63;;;;;;;7.53;51.58;97784.22;6113519;29;20708;-92
2024/02/13 14:23:20;;;;;;;1.40;0.70;;;;;;;7.70;52.20;97851.56;6116915;29;20725;-92
2024/02/13 14:26:23;;;;;;;1.33;0.80;;;;;;;6.76;49.42;97704.25;6090666;29;20219;-92
2024/02/13 14:29:25;;;;;;;0.70;0.70;;;;;;;7.99;50.39;97876.56;6087152;29;20202;-94
2024/02/13 14:32:28;;;;;;;1.63;0.90;;;;;;;6.37;50.92;97626.78;6100601;29;20208;-93
2024/02/13 14:35:31;;;;;;;1.87;1.07;;;;;;;6.25;50.06;97647.81;6089206;29;20310;-92
2024/02/13 14:38:35;;;;;;;1.00;0.80;;;;;;;7.27;50.25;97807.31;6090912;29;20200;-93
2024/02/13 14:41:41;;;;;;;2.47;0.90;;;;;;;6.78;49.69;97731.31;6108294;29;20673;-92